createdAt,value
2018-09-12T00:00:10.002Z,84.30
2018-09-12T00:02:39.888Z,84.80
2018-09-12T00:05:09.366Z,84.80
2018-09-12T00:07:39.739Z,85.40
2018-09-12T00:10:10.001Z,85.90
2018-09-12T00:12:40.356Z,85.60
2018-09-12T00:15:10.079Z,85.50
2018-09-12T00:17:39.638Z,85.20
2018-09-12T00:20:10.055Z,84.60
2018-09-12T00:22:40.265Z,84.30
2018-09-12T00:25:10.167Z,84.20
2018-09-12T00:27:39.832Z,84.00
2018-09-12T00:30:09.621Z,83.80
2018-09-12T00:32:39.328Z,83.80
2018-09-12T00:35:09.271Z,83.50
2018-09-12T00:37:38.829Z,83.50
2018-09-12T00:40:08.615Z,83.40
2018-09-12T00:42:39.569Z,83.40
2018-09-12T00:45:14.218Z,83.50
2018-09-12T00:47:44.108Z,83.40
2018-09-12T00:50:14.142Z,83.50
2018-09-12T00:52:43.894Z,83.80
2018-09-12T00:55:14.158Z,84.00
2018-09-12T00:57:43.818Z,84.10
2018-09-12T01:00:13.463Z,84.50
2018-09-12T01:02:43.113Z,84.60
2018-09-12T01:05:12.906Z,84.80
2018-09-12T01:07:43.734Z,85.00
2018-09-12T01:10:13.449Z,85.10
2018-09-12T01:12:43.014Z,85.50
2018-09-12T01:15:12.512Z,85.90
2018-09-12T01:17:42.115Z,86.30
2018-09-12T01:20:11.939Z,86.70
2018-09-12T01:22:41.563Z,87.00
2018-09-12T01:25:11.355Z,87.20
2018-09-12T01:27:42.319Z,87.30
2018-09-12T01:30:16.278Z,87.50
2018-09-12T01:32:46.340Z,87.80
2018-09-12T01:35:16.888Z,88.40
2018-09-12T01:37:47.108Z,88.50
2018-09-12T01:40:16.992Z,88.90
2018-09-12T01:42:46.857Z,89.20
2018-09-12T02:02:33.331Z,90.80
2018-09-12T02:05:03.248Z,91.00
2018-09-12T02:07:33.064Z,90.90
2018-09-12T02:10:02.818Z,91.10
2018-09-12T02:12:32.856Z,90.70
2018-09-12T02:15:02.888Z,90.70
2018-09-12T02:17:33.052Z,90.90
2018-09-12T02:20:03.122Z,90.80
2018-09-12T02:22:34.464Z,90.70
2018-09-12T02:25:04.992Z,90.70
2018-09-12T02:27:34.896Z,90.80
2018-09-12T02:30:05.507Z,90.90
2018-09-12T02:32:35.294Z,90.90
2018-09-12T02:35:05.228Z,91.00
2018-09-12T02:37:35.022Z,90.90
2018-09-12T02:40:05.430Z,90.80
2018-09-12T02:42:35.083Z,90.80
2018-09-12T02:45:05.456Z,90.90
2018-09-12T02:47:37.503Z,90.80
2018-09-12T02:50:10.804Z,90.50
2018-09-12T02:52:41.738Z,90.80
2018-09-12T02:55:13.013Z,90.60
2018-09-12T02:57:42.992Z,90.60
2018-09-12T03:00:12.918Z,90.80
2018-09-12T03:02:45.286Z,91.10
2018-09-12T03:05:15.072Z,91.30
2018-09-12T03:07:45.010Z,91.30
2018-09-12T03:10:14.563Z,91.50
2018-09-12T03:12:44.421Z,91.70
2018-09-12T03:15:14.123Z,91.90
2018-09-12T03:17:43.868Z,92.10
2018-09-12T03:20:13.709Z,92.40
2018-09-12T03:22:43.573Z,92.50
2018-09-12T03:25:20.924Z,92.70
2018-09-12T03:27:52.351Z,92.70
2018-09-12T03:30:21.985Z,92.50
2018-09-12T03:32:51.750Z,92.80
2018-09-12T03:35:21.486Z,93.10
2018-09-12T03:37:51.494Z,93.20
2018-09-12T03:40:21.042Z,93.40
2018-09-12T03:42:51.077Z,93.60
2018-09-12T03:45:20.959Z,93.70
2018-09-12T03:47:50.401Z,93.40
2018-09-12T03:50:21.630Z,93.30
2018-09-12T03:52:51.194Z,93.40
2018-09-12T03:55:20.965Z,93.30
2018-09-12T03:57:50.736Z,93.70
2018-09-12T04:00:20.826Z,93.90
2018-09-12T04:02:50.552Z,93.90
2018-09-12T04:05:20.168Z,94.10
2018-09-12T04:07:49.900Z,94.10
2018-09-12T04:10:20.558Z,94.10
2018-09-12T04:12:50.668Z,94.10
2018-09-12T04:35:29.381Z,94.50
2018-09-12T04:38:00.520Z,95.00
2018-09-12T04:40:31.672Z,95.40
2018-09-12T04:43:02.243Z,95.70
2018-09-12T04:45:32.102Z,95.90
2018-09-12T04:48:02.340Z,96.10
2018-09-12T04:50:32.046Z,96.30
2018-09-12T04:53:02.690Z,96.30
2018-09-12T04:55:32.506Z,96.70
2018-09-12T04:58:03.286Z,97.30
2018-09-12T05:00:34.014Z,97.70
2018-09-12T05:03:04.576Z,98.00
2018-09-12T05:05:35.333Z,98.30
2018-09-12T05:17:01.565Z,99.90
2018-09-12T05:28:01.536Z,99.90
2018-09-12T05:30:31.290Z,99.90
2018-09-12T05:33:01.448Z,99.90
2018-09-12T05:35:31.904Z,99.90
2018-09-12T05:38:01.751Z,99.70
2018-09-12T05:40:32.054Z,99.60
2018-09-12T05:43:01.908Z,99.80
2018-09-12T05:48:25.585Z,98.80
2018-09-12T05:50:56.570Z,99.00
2018-09-12T05:53:27.294Z,98.70
2018-09-12T05:55:58.959Z,98.70
2018-09-12T05:58:29.681Z,98.90
2018-09-12T06:00:59.682Z,99.00
2018-09-12T06:03:29.762Z,99.00
2018-09-12T06:06:12.567Z,99.10
2018-09-12T06:08:42.941Z,99.10
2018-09-12T06:11:12.983Z,98.90
2018-09-12T06:13:42.649Z,99.10
2018-09-12T06:19:05.958Z,98.20
2018-09-12T06:21:36.948Z,97.00
2018-09-12T06:24:07.907Z,95.80
2018-09-12T06:29:31.077Z,94.30
2018-09-12T06:32:06.480Z,93.10
2018-09-12T06:34:36.996Z,92.70
2018-09-12T06:37:06.801Z,91.90
2018-09-12T06:39:37.623Z,91.20
2018-09-12T06:45:01.044Z,89.50
2018-09-12T06:47:31.350Z,88.90
2018-09-12T06:50:01.760Z,88.70
2018-09-12T06:52:32.089Z,88.40
2018-09-12T06:55:04.440Z,88.00
2018-09-12T07:03:31.749Z,87.70
2018-09-12T07:06:02.186Z,87.80
2018-09-12T07:17:10.640Z,87.00
2018-09-12T07:19:42.842Z,86.20
2018-09-12T07:22:13.960Z,86.20
2018-09-12T07:27:38.655Z,87.00
2018-09-12T07:59:04.525Z,86.20
2018-09-12T08:01:35.285Z,86.20
2018-09-12T08:04:05.383Z,86.00
2018-09-12T08:06:35.997Z,86.30
2018-09-12T08:09:08.154Z,86.70
2018-09-12T08:17:24.629Z,86.30
2018-09-12T08:31:30.503Z,85.90
2018-09-12T08:34:00.756Z,85.60
2018-09-12T08:36:33.618Z,86.60
2018-09-12T08:39:04.198Z,87.20
2018-09-12T08:53:06.473Z,87.20
2018-09-12T08:55:37.124Z,87.10
2018-09-12T08:58:07.862Z,87.10
2018-09-12T09:00:38.036Z,86.60
2018-09-12T09:03:08.162Z,86.50
2018-09-12T09:05:37.996Z,86.50
2018-09-12T09:08:08.112Z,86.70
2018-09-12T09:10:41.800Z,86.40
2018-09-12T09:13:12.131Z,86.00
2018-09-12T09:15:53.085Z,86.40
2018-09-12T09:18:23.422Z,86.40
2018-09-12T09:26:39.691Z,85.60
2018-09-12T09:32:03.911Z,85.50
2018-09-12T09:34:33.863Z,84.90
2018-09-12T09:45:59.917Z,84.50
2018-09-12T09:48:31.136Z,84.00
2018-09-12T09:51:02.532Z,83.00
2018-09-12T09:53:42.999Z,80.10
2018-09-12T09:56:14.266Z,77.00
2018-09-12T10:04:22.939Z,74.60
2018-09-12T10:12:26.220Z,74.80
2018-09-12T10:14:55.573Z,75.50
2018-09-12T10:20:23.784Z,76.10
2018-09-12T10:22:54.753Z,76.20
2018-09-12T10:25:36.095Z,76.20
2018-09-12T10:28:06.399Z,75.90
2018-09-12T10:30:37.277Z,74.90
2018-09-12T10:33:06.217Z,75.20
2018-09-12T10:38:28.510Z,76.50
2018-09-12T10:40:58.621Z,76.80
2018-09-12T10:43:28.551Z,76.40
2018-09-12T10:45:58.535Z,75.70
2018-09-12T10:48:28.817Z,75.40
2018-09-12T10:50:59.605Z,75.00
2018-09-12T10:53:35.760Z,73.50
2018-09-12T10:56:05.720Z,72.80
2018-09-12T10:58:47.856Z,71.80
2018-09-12T11:01:17.803Z,70.60
2018-09-12T11:03:46.528Z,69.90
2018-09-12T11:09:19.528Z,67.40
2018-09-12T11:11:48.252Z,69.70
2018-09-12T11:28:40.841Z,70.40
2018-09-12T11:31:12.934Z,70.70
2018-09-12T11:33:43.119Z,72.00
2018-09-12T11:39:09.409Z,71.00
2018-09-12T11:41:38.455Z,70.30
2018-09-12T11:47:01.487Z,71.70
2018-09-12T11:49:31.297Z,72.70
2018-09-12T11:54:55.474Z,74.00
2018-09-12T12:03:09.307Z,74.40
2018-09-12T12:05:59.386Z,75.00
2018-09-12T12:08:29.187Z,74.60
2018-09-12T12:39:45.123Z,77.90
2018-09-12T12:42:13.953Z,79.00
2018-09-12T12:44:44.264Z,79.30
2018-09-12T12:50:07.087Z,80.60
2018-09-12T12:52:37.202Z,80.10
2018-09-12T13:03:47.945Z,80.00
2018-09-12T13:06:18.544Z,79.20
2018-09-12T13:34:42.324Z,81.20
2018-09-12T13:37:11.936Z,81.00
2018-09-12T13:42:21.758Z,82.10
2018-09-12T13:44:50.698Z,83.10
2018-09-12T13:47:20.596Z,83.20
2018-09-12T13:49:51.106Z,83.40
2018-09-12T13:52:21.101Z,84.10
2018-09-12T13:54:51.266Z,84.20
2018-09-12T13:57:21.671Z,83.90
2018-09-12T13:59:52.073Z,83.50
2018-09-12T14:02:22.367Z,84.00
2018-09-12T14:04:51.406Z,83.50
2018-09-12T14:07:22.089Z,83.00
2018-09-12T14:09:53.362Z,83.40
2018-09-12T14:12:24.734Z,83.50
2018-09-12T14:14:54.702Z,83.30
2018-09-12T14:17:25.651Z,83.90
2018-09-12T14:20:17.016Z,84.40
2018-09-12T14:22:48.316Z,85.50
2018-09-12T14:25:19.842Z,86.00
2018-09-12T14:27:50.102Z,86.70
2018-09-12T14:30:20.444Z,86.80
2018-09-12T14:32:50.851Z,87.10
2018-09-12T14:35:22.898Z,87.70
2018-09-12T14:37:53.425Z,88.40
2018-09-12T14:40:24.373Z,88.60
2018-09-12T14:42:55.323Z,88.20
2018-09-12T14:45:25.896Z,87.40
2018-09-12T14:47:56.787Z,86.50
2018-09-12T14:50:28.575Z,86.40
2018-09-12T14:52:58.568Z,86.60
2018-09-12T14:55:29.373Z,86.40
2018-09-12T14:58:01.633Z,86.00
2018-09-12T15:00:31.668Z,85.60
2018-09-12T15:03:00.650Z,86.50
2018-09-12T15:05:31.352Z,87.30
2018-09-12T15:08:02.218Z,88.40
2018-09-12T15:10:32.486Z,90.60
2018-09-12T15:13:01.274Z,92.30
2018-09-12T15:15:32.534Z,92.50
2018-09-12T15:18:02.524Z,93.70
2018-09-12T15:20:32.783Z,93.80
2018-09-12T15:23:02.979Z,94.60
2018-09-12T15:25:33.404Z,95.70
2018-09-12T15:28:04.678Z,96.00
2018-09-12T15:30:34.798Z,95.70
2018-09-12T15:33:05.486Z,96.80
2018-09-12T15:35:35.730Z,96.70
2018-09-12T15:38:06.493Z,96.40
2018-09-12T15:40:36.575Z,96.40
2018-09-12T15:43:07.475Z,96.60
2018-09-12T15:45:40.805Z,96.50
2018-09-12T15:48:10.979Z,96.70
2018-09-12T15:50:41.335Z,97.30
2018-09-12T15:53:12.583Z,97.60
2018-09-12T15:55:42.497Z,97.00
2018-09-12T15:58:11.655Z,97.10
2018-09-12T16:00:43.011Z,97.50
2018-09-12T16:03:13.921Z,97.30
2018-09-12T16:05:47.690Z,97.20
2018-09-12T16:08:18.468Z,96.60
2018-09-12T16:10:52.885Z,96.50
2018-09-12T16:13:23.469Z,96.10
2018-09-12T16:15:53.893Z,96.40
2018-09-12T16:18:25.537Z,96.70
2018-09-12T16:20:56.848Z,96.20
2018-09-12T16:23:28.361Z,96.50
2018-09-12T16:26:00.401Z,96.00
2018-09-12T16:28:32.123Z,95.80
2018-09-12T16:31:02.771Z,96.30
2018-09-12T16:33:32.999Z,96.20
2018-09-12T16:36:03.457Z,96.70
2018-09-12T16:38:33.388Z,96.40
2018-09-12T16:41:10.977Z,96.70
2018-09-12T16:43:41.868Z,96.60
2018-09-12T16:46:13.735Z,97.00
2018-09-12T16:48:45.001Z,97.00
2018-09-12T16:51:18.494Z,97.50
2018-09-12T16:53:48.599Z,97.10
2018-09-12T16:56:19.914Z,97.10
2018-09-12T16:58:51.301Z,97.50
2018-09-12T17:01:20.180Z,97.40
2018-09-12T17:03:49.284Z,97.00
2018-09-12T17:06:21.022Z,97.00
2018-09-12T17:08:51.000Z,97.00
2018-09-12T17:11:21.389Z,97.00
2018-09-12T17:13:52.237Z,97.10
2018-09-12T17:16:25.923Z,96.60
2018-09-12T17:18:55.968Z,96.40
2018-09-12T17:21:24.812Z,96.10
2018-09-12T17:23:56.345Z,95.90
2018-09-12T17:26:52.807Z,96.10
2018-09-12T17:29:29.085Z,96.40
2018-09-12T17:31:59.977Z,96.70
2018-09-12T17:34:30.042Z,96.80
2018-09-12T17:37:00.169Z,96.50
2018-09-12T17:39:29.725Z,96.80
2018-09-12T17:41:58.802Z,97.30
2018-09-12T17:44:29.450Z,97.10
2018-09-12T17:47:00.206Z,97.00
2018-09-12T17:49:31.857Z,97.30
2018-09-12T17:52:02.080Z,97.50
2018-09-12T17:54:35.143Z,97.20
2018-09-12T17:57:05.863Z,97.20
2018-09-12T17:59:38.092Z,97.30
2018-09-12T18:02:23.342Z,97.30
2018-09-12T18:08:27.133Z,97.20
2018-09-12T18:11:12.177Z,97.10
2018-09-12T18:13:56.740Z,97.00
2018-09-12T18:22:32.315Z,97.10
2018-09-12T18:25:08.312Z,97.20
2018-09-12T18:27:38.590Z,97.00
2018-09-12T18:30:08.635Z,97.30
2018-09-12T18:32:40.110Z,97.10
2018-09-12T18:35:10.025Z,97.00
2018-09-12T18:37:40.943Z,96.90
2018-09-12T19:11:51.124Z,96.60
2018-09-12T20:11:56.122Z,96.90
2018-09-12T20:40:29.343Z,97.00
2018-09-12T22:12:18.286Z,95.40
2018-09-12T22:40:53.309Z,94.70
2018-09-12T23:41:06.037Z,96.40
2018-09-12T23:57:59.012Z,97.00
